createdAt,value
2022-09-13T00:02:07.879Z,71.77
2022-09-13T00:04:34.490Z,71.46
2022-09-13T00:07:00.964Z,71.87
2022-09-13T00:09:32.264Z,71.44
2022-09-13T00:12:01.060Z,71.56
2022-09-13T00:14:27.614Z,71.86
2022-09-13T00:16:54.196Z,71.72
2022-09-13T00:19:20.709Z,71.64
2022-09-13T00:21:47.249Z,72.02
2022-09-13T00:24:16.490Z,71.92
2022-09-13T00:26:43.107Z,71.93
2022-09-13T00:29:09.641Z,72.02
2022-09-13T00:31:38.710Z,72.00
2022-09-13T00:34:05.318Z,72.30
2022-09-13T00:36:31.851Z,72.32
2022-09-13T00:39:00.400Z,72.29
2022-09-13T00:41:27.055Z,72.42
2022-09-13T00:43:59.502Z,72.15
2022-09-13T00:46:44.198Z,72.38
2022-09-13T00:49:13.622Z,72.43
2022-09-13T00:51:45.990Z,72.33
2022-09-13T00:54:15.285Z,72.66
2022-09-13T00:56:48.639Z,72.51
2022-09-13T00:59:58.348Z,72.38
2022-09-13T01:02:25.103Z,72.49
2022-09-13T01:04:51.846Z,72.91
2022-09-13T01:07:19.055Z,73.06
2022-09-13T01:09:52.699Z,72.83
2022-09-13T01:12:41.634Z,72.94
2022-09-13T01:15:10.886Z,72.83
2022-09-13T01:17:39.538Z,73.14
2022-09-13T01:20:10.913Z,73.07
2022-09-13T01:22:49.464Z,72.82
2022-09-13T01:25:55.469Z,72.97
2022-09-13T01:28:40.112Z,73.07
2022-09-13T01:31:31.694Z,73.03
2022-09-13T01:34:12.764Z,73.08
2022-09-13T01:36:50.126Z,73.15
2022-09-13T01:39:42.895Z,73.19
2022-09-13T01:42:28.746Z,73.23
2022-09-13T01:45:10.982Z,73.09
2022-09-13T01:48:16.570Z,73.23
2022-09-13T01:50:48.582Z,73.32
2022-09-13T01:53:35.098Z,73.12
2022-09-13T01:56:26.106Z,72.98
2022-09-13T01:59:22.800Z,73.07
2022-09-13T02:02:14.907Z,72.87
2022-09-13T02:04:47.592Z,73.17
2022-09-13T02:07:26.593Z,73.34
2022-09-13T02:10:00.354Z,73.09
2022-09-13T02:12:31.159Z,73.05
2022-09-13T02:15:07.190Z,72.79
2022-09-13T02:17:39.208Z,73.24
2022-09-13T02:20:21.367Z,73.33
2022-09-13T02:22:57.913Z,73.27
2022-09-13T02:25:29.080Z,73.18
2022-09-13T02:28:01.771Z,73.39
2022-09-13T02:30:31.648Z,73.42
2022-09-13T02:33:08.643Z,73.30
2022-09-13T02:36:17.429Z,73.33
2022-09-13T02:38:52.633Z,73.43
2022-09-13T02:41:31.263Z,73.42
2022-09-13T02:44:08.317Z,73.55
2022-09-13T02:46:43.606Z,73.57
2022-09-13T02:49:24.692Z,73.73
2022-09-13T02:52:17.130Z,73.55
2022-09-13T02:54:57.782Z,73.96
2022-09-13T02:57:38.677Z,73.70
2022-09-13T03:00:08.667Z,73.93
2022-09-13T03:02:38.380Z,74.11
2022-09-13T03:05:05.283Z,74.01
2022-09-13T03:07:31.779Z,74.35
2022-09-13T03:10:05.592Z,74.67
2022-09-13T03:12:44.233Z,74.92
2022-09-13T03:15:29.785Z,75.46
2022-09-13T03:18:28.723Z,75.20
2022-09-13T03:21:08.256Z,75.10
2022-09-13T03:23:34.738Z,75.46
2022-09-13T03:26:04.446Z,75.58
2022-09-13T03:29:06.538Z,75.64
2022-09-13T03:31:38.403Z,75.79
2022-09-13T03:34:15.752Z,76.14
2022-09-13T03:36:44.460Z,76.11
2022-09-13T03:39:22.996Z,75.98
2022-09-13T03:41:55.913Z,76.19
2022-09-13T03:44:26.005Z,76.44
2022-09-13T03:46:57.965Z,76.76
2022-09-13T03:49:27.027Z,76.79
2022-09-13T03:51:54.901Z,76.78
2022-09-13T03:54:30.159Z,76.93
2022-09-13T03:57:10.707Z,76.48
2022-09-13T03:59:39.620Z,76.54
2022-09-13T04:02:12.051Z,76.67
2022-09-13T04:04:40.409Z,76.51
2022-09-13T04:07:07.500Z,76.85
2022-09-13T04:09:34.215Z,76.75
2022-09-13T04:12:00.937Z,76.68
2022-09-13T04:14:28.289Z,76.55
2022-09-13T04:16:56.608Z,76.80
2022-09-13T04:19:24.193Z,76.93
2022-09-13T04:21:52.433Z,77.03
2022-09-13T04:24:19.648Z,77.11
2022-09-13T04:26:54.494Z,77.15
2022-09-13T04:29:22.661Z,76.89
2022-09-13T04:31:55.942Z,76.96
2022-09-13T04:34:23.246Z,77.02
2022-09-13T04:36:52.251Z,76.85
2022-09-13T04:39:22.235Z,76.76
2022-09-13T04:41:49.722Z,77.05
2022-09-13T04:44:19.283Z,76.92
2022-09-13T04:46:51.418Z,76.88
2022-09-13T04:49:18.712Z,76.93
2022-09-13T04:51:45.245Z,77.25
2022-09-13T04:54:15.578Z,77.42
2022-09-13T04:56:49.587Z,77.40
2022-09-13T04:59:16.908Z,77.50
2022-09-13T05:01:43.615Z,77.77
2022-09-13T05:04:10.574Z,77.68
2022-09-13T05:06:37.508Z,77.75
2022-09-13T05:09:04.236Z,77.89
2022-09-13T05:11:31.560Z,77.86
2022-09-13T05:13:59.943Z,78.00
2022-09-13T05:16:29.554Z,77.95
2022-09-13T05:18:57.105Z,78.06
2022-09-13T05:21:24.226Z,78.13
2022-09-13T05:23:54.954Z,78.18
2022-09-13T05:26:24.057Z,78.03
2022-09-13T05:28:51.161Z,77.98
2022-09-13T05:31:21.767Z,78.08
2022-09-13T05:33:54.157Z,78.18
2022-09-13T05:36:20.803Z,78.12
2022-09-13T05:38:58.067Z,77.92
2022-09-13T05:41:34.033Z,77.82
2022-09-13T05:44:10.401Z,77.78
2022-09-13T05:46:39.632Z,77.57
2022-09-13T05:49:06.228Z,77.50
2022-09-13T05:51:36.450Z,77.52
2022-09-13T05:54:05.438Z,77.36
2022-09-13T05:56:34.245Z,77.43
2022-09-13T05:59:00.751Z,77.56
2022-09-13T06:01:29.350Z,77.42
2022-09-13T06:03:59.749Z,77.31
2022-09-13T06:06:29.113Z,77.30
2022-09-13T06:08:57.585Z,76.76
2022-09-13T06:11:26.265Z,76.74
2022-09-13T06:13:55.355Z,76.28
2022-09-13T06:16:22.228Z,76.25
2022-09-13T06:18:49.211Z,75.99
2022-09-13T06:21:27.025Z,75.66
2022-09-13T06:23:55.683Z,75.80
2022-09-13T06:26:25.970Z,75.57
2022-09-13T06:28:54.695Z,75.27
2022-09-13T06:31:25.742Z,75.29
2022-09-13T06:34:05.518Z,74.94
2022-09-13T06:36:32.596Z,74.66
2022-09-13T06:39:01.781Z,74.12
2022-09-13T06:41:28.692Z,73.67
2022-09-13T06:43:59.373Z,73.17
2022-09-13T06:46:32.373Z,72.95
2022-09-13T06:49:00.773Z,72.10
2022-09-13T06:51:32.681Z,71.64
2022-09-13T06:54:03.976Z,71.31
2022-09-13T06:56:32.742Z,70.78
2022-09-13T06:59:01.195Z,70.87
2022-09-13T07:01:30.812Z,70.24
2022-09-13T07:04:03.623Z,70.00
2022-09-13T07:06:32.512Z,69.43
2022-09-13T07:09:01.378Z,69.23
2022-09-13T07:11:33.042Z,69.48
2022-09-13T07:14:02.503Z,69.22
2022-09-13T07:16:31.529Z,69.08
2022-09-13T07:19:05.585Z,68.43
2022-09-13T07:21:33.980Z,68.17
2022-09-13T07:24:00.711Z,67.98
2022-09-13T07:26:29.558Z,67.62
2022-09-13T07:28:59.206Z,66.96
2022-09-13T07:31:47.182Z,66.50
2022-09-13T07:34:19.011Z,66.02
2022-09-13T07:36:48.941Z,65.39
2022-09-13T07:39:22.037Z,64.81
2022-09-13T07:41:49.339Z,64.29
2022-09-13T07:44:15.901Z,62.87
2022-09-13T07:46:44.165Z,60.40
2022-09-13T07:49:12.998Z,59.39
2022-09-13T07:51:42.057Z,58.17
2022-09-13T07:54:14.185Z,58.84
2022-09-13T07:56:41.794Z,57.38
2022-09-13T07:59:13.763Z,55.61
2022-09-13T08:01:48.792Z,54.58
2022-09-13T08:04:21.278Z,55.70
2022-09-13T08:06:48.123Z,55.57
2022-09-13T08:09:15.890Z,54.62
2022-09-13T08:11:52.730Z,52.87
2022-09-13T08:14:21.531Z,51.87
2022-09-13T08:16:48.202Z,51.08
2022-09-13T08:19:19.807Z,51.49
2022-09-13T08:21:46.862Z,53.06
2022-09-13T08:24:19.126Z,52.42
2022-09-13T08:26:48.712Z,52.29
2022-09-13T08:29:18.757Z,53.71
2022-09-13T08:31:45.393Z,54.40
2022-09-13T08:34:14.631Z,54.53
2022-09-13T08:36:41.787Z,55.31
2022-09-13T08:39:09.367Z,54.48
2022-09-13T08:41:45.355Z,53.91
2022-09-13T08:44:31.155Z,53.37
2022-09-13T08:47:06.493Z,53.69
2022-09-13T08:49:41.534Z,54.02
2022-09-13T08:52:46.283Z,54.64
2022-09-13T08:55:30.053Z,54.68
2022-09-13T08:58:14.920Z,54.36
2022-09-13T09:00:46.779Z,53.93
2022-09-13T09:03:36.118Z,52.97
2022-09-13T09:06:02.780Z,53.23
2022-09-13T09:08:33.893Z,53.67
2022-09-13T09:11:07.908Z,53.26
2022-09-13T09:13:57.274Z,53.79
2022-09-13T09:16:40.092Z,52.80
2022-09-13T09:19:34.445Z,55.14
2022-09-13T09:22:05.940Z,54.99
2022-09-13T09:24:36.451Z,54.75
2022-09-13T09:27:14.372Z,54.51
2022-09-13T09:29:44.153Z,55.87
2022-09-13T09:32:44.223Z,57.86
2022-09-13T09:35:29.314Z,57.42
2022-09-13T09:38:31.405Z,57.43
2022-09-13T09:41:05.671Z,56.54
2022-09-13T09:43:48.591Z,58.05
2022-09-13T09:46:23.330Z,59.41
2022-09-13T09:48:54.990Z,59.44
2022-09-13T09:51:27.010Z,60.23
2022-09-13T09:54:02.001Z,61.04
2022-09-13T09:56:33.109Z,60.85
2022-09-13T09:59:02.608Z,59.93
2022-09-13T10:01:32.658Z,60.56
2022-09-13T10:04:14.230Z,61.23
2022-09-13T10:06:42.261Z,60.52
2022-09-13T10:09:16.730Z,60.04
2022-09-13T10:11:57.716Z,59.91
2022-09-13T10:14:40.144Z,59.93
2022-09-13T10:17:25.801Z,60.52
2022-09-13T10:20:15.393Z,60.44
2022-09-13T10:22:43.043Z,59.30
2022-09-13T10:25:25.109Z,58.58
2022-09-13T10:27:59.291Z,58.23
2022-09-13T10:30:34.959Z,58.27
2022-09-13T10:33:03.091Z,59.21
2022-09-13T10:35:30.117Z,59.34
2022-09-13T10:37:59.033Z,59.98
2022-09-13T10:40:34.164Z,59.28
2022-09-13T10:43:07.853Z,58.26
2022-09-13T10:45:38.767Z,57.57
2022-09-13T10:48:13.126Z,59.10
2022-09-13T10:50:40.030Z,59.90
2022-09-13T10:53:38.055Z,60.91
2022-09-13T10:56:06.307Z,61.34
2022-09-13T10:58:33.064Z,61.30
2022-09-13T11:01:23.902Z,61.63
2022-09-13T11:04:50.660Z,59.79
2022-09-13T11:07:25.088Z,58.86
2022-09-13T11:10:05.729Z,58.86
2022-09-13T11:13:04.621Z,57.83
2022-09-13T11:15:34.331Z,57.01
2022-09-13T11:18:17.064Z,56.20
2022-09-13T11:21:05.471Z,56.84
2022-09-13T11:24:17.094Z,58.72
2022-09-13T11:27:05.316Z,60.07
2022-09-13T11:30:02.205Z,60.47
2022-09-13T11:32:50.406Z,60.84
2022-09-13T11:35:32.215Z,60.47
2022-09-13T11:38:17.570Z,60.19
2022-09-13T11:40:51.510Z,60.06
2022-09-13T11:43:35.673Z,59.51
2022-09-13T11:46:12.063Z,58.83
2022-09-13T11:48:47.664Z,58.49
2022-09-13T11:51:19.983Z,58.66
2022-09-13T11:54:37.950Z,57.41
2022-09-13T11:57:15.169Z,56.63
2022-09-13T11:59:50.810Z,55.83
2022-09-13T12:02:34.529Z,55.84
2022-09-13T12:05:22.048Z,56.35
2022-09-13T12:08:14.787Z,55.95
2022-09-13T12:10:52.543Z,56.12
2022-09-13T12:13:29.563Z,55.95
2022-09-13T12:16:09.918Z,56.77
2022-09-13T12:18:47.977Z,56.12
2022-09-13T12:21:23.684Z,56.44
2022-09-13T12:24:14.391Z,56.49
2022-09-13T12:26:56.239Z,56.80
2022-09-13T12:29:50.303Z,56.10
2022-09-13T12:32:18.523Z,55.85
2022-09-13T12:34:58.932Z,55.67
2022-09-13T12:37:51.651Z,56.38
2022-09-13T12:40:51.609Z,56.29
2022-09-13T12:43:24.012Z,55.71
2022-09-13T12:45:59.697Z,55.74
2022-09-13T12:48:29.280Z,55.68
2022-09-13T12:51:12.494Z,55.23
2022-09-13T12:54:02.659Z,54.47
2022-09-13T12:57:03.320Z,54.88
2022-09-13T12:59:45.160Z,54.88
2022-09-13T13:02:30.662Z,54.95
2022-09-13T13:05:06.392Z,54.57
2022-09-13T13:07:38.213Z,54.82
2022-09-13T13:10:06.696Z,54.95
2022-09-13T13:12:40.770Z,54.19
2022-09-13T13:15:27.337Z,54.56
2022-09-13T13:17:55.468Z,53.98
2022-09-13T13:20:52.307Z,54.32
2022-09-13T13:23:23.369Z,54.01
2022-09-13T13:26:02.976Z,53.49
2022-09-13T13:28:47.838Z,53.65
2022-09-13T13:31:32.494Z,53.58
2022-09-13T13:34:14.383Z,53.21
2022-09-13T13:36:43.704Z,52.67
2022-09-13T13:39:33.758Z,53.11
2022-09-13T13:42:13.209Z,53.84
2022-09-13T13:44:42.456Z,53.46
2022-09-13T13:47:08.890Z,53.41
2022-09-13T13:49:41.300Z,53.18
2022-09-13T13:52:10.785Z,52.99
2022-09-13T13:54:44.245Z,52.78
2022-09-13T13:57:55.826Z,53.07
2022-09-13T14:00:30.335Z,52.04
2022-09-13T14:02:59.239Z,52.51
2022-09-13T14:05:49.025Z,52.65
2022-09-13T14:08:34.113Z,53.01
2022-09-13T14:11:29.847Z,53.26
2022-09-13T14:14:32.786Z,53.79
2022-09-13T14:17:15.544Z,53.63
2022-09-13T14:19:50.270Z,53.76
2022-09-13T14:22:25.341Z,54.03
2022-09-13T14:24:57.174Z,54.57
2022-09-13T14:27:29.203Z,54.68
2022-09-13T14:30:01.690Z,54.61
2022-09-13T14:32:39.835Z,55.24
2022-09-13T14:35:31.117Z,54.65
2022-09-13T14:38:12.162Z,54.69
2022-09-13T14:40:39.719Z,54.47
2022-09-13T14:43:25.991Z,54.30
2022-09-13T14:45:59.991Z,54.13
2022-09-13T14:48:37.142Z,54.14
2022-09-13T14:51:12.711Z,54.91
2022-09-13T14:53:42.995Z,54.67
2022-09-13T14:56:17.682Z,54.70
2022-09-13T14:58:58.486Z,54.71
2022-09-13T15:01:43.251Z,54.87
2022-09-13T15:04:10.021Z,55.45
2022-09-13T15:06:39.873Z,55.83
2022-09-13T15:09:12.898Z,55.54
2022-09-13T15:11:55.091Z,55.99
2022-09-13T15:14:35.013Z,55.60
2022-09-13T15:17:11.125Z,55.82
2022-09-13T15:19:37.639Z,55.67
2022-09-13T15:22:19.660Z,55.97
2022-09-13T15:24:54.577Z,56.07
2022-09-13T15:27:27.134Z,55.91
2022-09-13T15:30:03.471Z,56.19
2022-09-13T15:32:32.325Z,56.50
2022-09-13T15:35:00.937Z,56.69
2022-09-13T15:37:38.416Z,56.52
2022-09-13T15:40:13.337Z,57.12
2022-09-13T15:42:42.264Z,57.25
2022-09-13T15:45:09.322Z,57.24
2022-09-13T15:47:37.344Z,57.19
2022-09-13T15:50:04.290Z,57.40
2022-09-13T15:52:31.304Z,57.56
2022-09-13T15:55:00.129Z,57.24
2022-09-13T15:57:28.739Z,57.68
2022-09-13T16:00:01.437Z,57.74
2022-09-13T16:02:35.703Z,57.85
2022-09-13T16:05:05.586Z,57.37
2022-09-13T16:07:32.338Z,57.62
2022-09-13T16:09:59.006Z,57.92
2022-09-13T16:12:27.004Z,58.09
2022-09-13T16:14:54.778Z,58.01
2022-09-13T16:17:26.745Z,57.78
2022-09-13T16:19:54.498Z,58.15
2022-09-13T16:22:21.573Z,57.88
2022-09-13T16:24:50.911Z,58.22
2022-09-13T16:27:19.358Z,58.61
2022-09-13T16:29:50.765Z,58.83
2022-09-13T16:32:17.411Z,58.12
2022-09-13T16:34:47.545Z,58.07
2022-09-13T16:37:16.340Z,57.88
2022-09-13T16:39:43.044Z,57.24
2022-09-13T16:42:10.348Z,56.76
2022-09-13T16:44:36.947Z,56.57
2022-09-13T16:47:04.273Z,56.51
2022-09-13T16:49:33.331Z,56.39
2022-09-13T16:51:59.867Z,56.59
2022-09-13T16:54:27.564Z,56.55
2022-09-13T16:56:57.481Z,56.95
2022-09-13T16:59:31.446Z,57.11
2022-09-13T17:01:58.171Z,57.35
2022-09-13T17:04:25.560Z,57.18
2022-09-13T17:06:52.147Z,57.42
2022-09-13T17:09:23.711Z,57.25
2022-09-13T17:11:50.507Z,57.67
2022-09-13T17:14:17.870Z,57.73
2022-09-13T17:16:52.125Z,58.01
2022-09-13T17:19:25.244Z,58.22
2022-09-13T17:21:53.585Z,58.29
2022-09-13T17:24:23.094Z,57.99
2022-09-13T17:26:49.732Z,58.35
2022-09-13T17:29:16.267Z,58.43
2022-09-13T17:31:43.490Z,58.49
2022-09-13T17:34:11.261Z,58.44
2022-09-13T17:36:42.053Z,58.38
2022-09-13T17:39:09.249Z,58.84
2022-09-13T17:41:36.458Z,58.49
2022-09-13T17:44:04.025Z,57.89
2022-09-13T17:46:31.024Z,57.95
2022-09-13T17:48:59.537Z,57.88
2022-09-13T17:51:30.726Z,58.11
2022-09-13T17:54:03.533Z,58.16
2022-09-13T17:56:37.272Z,58.47
2022-09-13T17:59:10.209Z,58.59
2022-09-13T18:01:41.951Z,58.78
2022-09-13T18:04:09.849Z,58.89
2022-09-13T18:06:40.778Z,59.04
2022-09-13T18:09:07.364Z,58.53
2022-09-13T18:11:34.080Z,58.67
2022-09-13T18:14:00.611Z,58.90
2022-09-13T18:16:29.399Z,59.22
2022-09-13T18:18:56.467Z,58.87
2022-09-13T18:21:27.554Z,59.15
2022-09-13T18:23:58.308Z,59.14
2022-09-13T18:26:29.835Z,59.39
2022-09-13T18:29:04.189Z,59.48
2022-09-13T18:31:32.837Z,59.68
2022-09-13T18:34:02.214Z,59.71
2022-09-13T18:36:33.390Z,59.76
2022-09-13T18:39:04.765Z,59.92
2022-09-13T18:41:37.607Z,60.13
2022-09-13T18:44:09.464Z,60.56
2022-09-13T18:46:37.460Z,61.02
2022-09-13T18:49:05.834Z,60.85
2022-09-13T18:51:35.734Z,61.21
2022-09-13T18:54:04.565Z,61.75
2022-09-13T18:56:33.165Z,61.55
2022-09-13T18:59:02.127Z,61.78
2022-09-13T19:01:32.689Z,61.63
2022-09-13T19:04:06.236Z,61.55
2022-09-13T19:06:38.918Z,61.68
2022-09-13T19:09:06.965Z,61.78
2022-09-13T19:11:52.027Z,61.76
2022-09-13T19:14:24.622Z,61.60
2022-09-13T19:16:53.974Z,61.56
2022-09-13T19:19:20.673Z,61.64
2022-09-13T19:21:48.732Z,61.29
2022-09-13T19:24:18.686Z,61.35
2022-09-13T19:26:50.816Z,61.11
2022-09-13T19:29:23.007Z,61.00
2022-09-13T19:31:52.826Z,61.37
2022-09-13T19:34:21.430Z,61.45
2022-09-13T19:36:53.735Z,61.32
2022-09-13T19:39:20.453Z,61.83
2022-09-13T19:41:47.061Z,61.77
2022-09-13T19:44:14.368Z,61.68
2022-09-13T19:46:42.385Z,61.76
2022-09-13T19:49:13.894Z,61.38
2022-09-13T19:51:41.669Z,61.88
2022-09-13T19:54:12.144Z,61.40
2022-09-13T19:56:42.724Z,61.66
2022-09-13T19:59:12.202Z,61.55
2022-09-13T20:01:41.521Z,61.89
2022-09-13T20:04:12.241Z,61.96
2022-09-13T20:06:44.184Z,61.68
2022-09-13T20:09:15.520Z,62.52
2022-09-13T20:11:46.679Z,62.91
2022-09-13T20:14:15.452Z,62.83
2022-09-13T20:16:43.145Z,63.00
2022-09-13T20:19:38.933Z,63.35
2022-09-13T20:22:01.406Z,63.64
2022-09-13T20:24:28.211Z,63.57
2022-09-13T20:26:57.284Z,63.83
2022-09-13T20:29:24.626Z,64.09
2022-09-13T20:31:51.214Z,64.26
2022-09-13T20:34:17.993Z,64.30
2022-09-13T20:36:45.497Z,64.83
2022-09-13T20:39:12.032Z,65.35
2022-09-13T20:41:38.637Z,65.34
2022-09-13T20:44:05.286Z,65.62
2022-09-13T20:46:31.979Z,65.73
2022-09-13T20:49:01.789Z,66.32
2022-09-13T20:51:32.698Z,66.31
2022-09-13T20:54:01.154Z,66.73
2022-09-13T20:56:29.153Z,66.96
2022-09-13T20:59:00.151Z,67.10
2022-09-13T21:01:29.745Z,67.69
2022-09-13T21:03:57.664Z,68.00
2022-09-13T21:06:26.549Z,68.21
2022-09-13T21:08:59.637Z,68.16
2022-09-13T21:11:33.980Z,68.06
2022-09-13T21:14:03.428Z,68.52
2022-09-13T21:16:34.966Z,68.68
2022-09-13T21:19:01.579Z,68.89
2022-09-13T21:21:33.801Z,69.17
2022-09-13T21:24:04.719Z,69.82
2022-09-13T21:26:31.952Z,69.71
2022-09-13T21:28:58.865Z,69.51
2022-09-13T21:31:28.245Z,69.70
2022-09-13T21:34:00.568Z,70.29
2022-09-13T21:36:28.752Z,70.33
2022-09-13T21:38:56.130Z,70.72
2022-09-13T21:41:24.041Z,70.70
2022-09-13T21:43:55.469Z,70.99
2022-09-13T21:46:24.951Z,71.02
2022-09-13T21:48:56.215Z,71.42
2022-09-13T21:51:25.973Z,71.15
2022-09-13T21:53:58.500Z,71.34
2022-09-13T21:56:27.933Z,70.92
2022-09-13T21:58:58.335Z,71.08
2022-09-13T22:01:30.025Z,70.95
2022-09-13T22:03:57.272Z,71.19
2022-09-13T22:06:24.394Z,71.16
2022-09-13T22:08:53.990Z,71.19
2022-09-13T22:11:26.435Z,71.27
2022-09-13T22:13:53.779Z,71.06
2022-09-13T22:16:31.443Z,71.10
2022-09-13T22:19:09.249Z,71.49
2022-09-13T22:21:40.908Z,71.36
2022-09-13T22:24:11.643Z,71.40
2022-09-13T22:26:40.867Z,71.46
2022-09-13T22:29:10.578Z,71.35
2022-09-13T22:31:39.883Z,71.18
2022-09-13T22:34:07.922Z,71.40
2022-09-13T22:36:36.799Z,71.71
2022-09-13T22:39:03.732Z,71.36
2022-09-13T22:41:33.346Z,71.22
2022-09-13T22:44:02.904Z,71.18
2022-09-13T22:46:32.918Z,70.97
2022-09-13T22:48:59.959Z,71.06
2022-09-13T22:51:27.021Z,70.98
2022-09-13T22:53:54.572Z,70.75
2022-09-13T22:56:27.958Z,70.66
2022-09-13T22:59:07.681Z,70.49
2022-09-13T23:01:35.257Z,70.65
2022-09-13T23:04:02.323Z,71.00
2022-09-13T23:06:34.181Z,70.67
2022-09-13T23:09:03.091Z,70.71
2022-09-13T23:11:32.265Z,70.78
2022-09-13T23:14:01.649Z,70.74
2022-09-13T23:16:31.311Z,70.70
2022-09-13T23:19:00.282Z,70.52
2022-09-13T23:21:31.796Z,70.82
2022-09-13T23:24:04.654Z,70.90
2022-09-13T23:26:31.485Z,70.96
2022-09-13T23:29:00.205Z,71.11
2022-09-13T23:31:32.246Z,71.09
2022-09-13T23:34:01.907Z,71.38
2022-09-13T23:36:31.132Z,71.33
2022-09-13T23:38:59.294Z,71.58
2022-09-13T23:41:26.239Z,71.50
2022-09-13T23:43:54.175Z,71.72
2022-09-13T23:46:21.037Z,71.89
2022-09-13T23:48:47.897Z,71.78
2022-09-13T23:51:19.948Z,72.18
2022-09-13T23:53:49.796Z,72.22
2022-09-13T23:56:18.989Z,72.49
2022-09-13T23:58:45.852Z,72.81
